createdAt,value
2022-12-11T00:00:27.913Z,-0.04
2022-12-11T00:02:54.850Z,-0.09
2022-12-11T00:05:21.695Z,-0.08
2022-12-11T00:07:48.456Z,-0.05
2022-12-11T00:10:15.305Z,-0.05
2022-12-11T00:12:42.290Z,-0.02
2022-12-11T00:15:10.220Z,-0.07
2022-12-11T00:17:39.412Z,-0.10
2022-12-11T00:20:07.962Z,-0.07
2022-12-11T00:22:35.221Z,-0.05
2022-12-11T00:25:01.988Z,-0.09
2022-12-11T00:27:28.689Z,-0.06
2022-12-11T00:29:55.525Z,-0.04
2022-12-11T00:32:22.505Z,0.01
2022-12-11T00:34:49.321Z,0.01
2022-12-11T00:37:16.223Z,0.03
2022-12-11T00:39:43.095Z,0.04
2022-12-11T00:42:10.073Z,-0.01
2022-12-11T00:44:37.183Z,0.02
2022-12-11T00:47:05.347Z,-0.01
2022-12-11T00:49:32.296Z,-0.02
2022-12-11T00:51:59.033Z,-0.10
2022-12-11T00:54:25.812Z,-0.06
2022-12-11T00:56:52.548Z,-0.03
2022-12-11T00:59:19.895Z,0.01
2022-12-11T01:01:46.651Z,-0.05
2022-12-11T01:04:13.459Z,-0.08
2022-12-11T01:06:40.189Z,-0.01
2022-12-11T01:09:25.655Z,0.07
2022-12-11T01:11:52.563Z,-0.02
2022-12-11T01:14:19.861Z,-0.02
2022-12-11T01:16:46.848Z,-0.04
2022-12-11T01:19:13.751Z,-0.02
2022-12-11T01:21:41.182Z,-0.01
2022-12-11T01:24:08.157Z,-0.03
2022-12-11T01:26:34.971Z,0.00
2022-12-11T01:29:02.204Z,0.02
2022-12-11T01:31:29.363Z,0.02
2022-12-11T01:33:56.807Z,0.02
2022-12-11T01:36:24.295Z,-0.03
2022-12-11T01:38:51.323Z,-0.06
2022-12-11T01:41:18.969Z,-0.09
2022-12-11T01:44:21.239Z,-0.07
2022-12-11T01:46:48.035Z,-0.03
2022-12-11T01:49:18.775Z,0.01
2022-12-11T01:51:55.177Z,-0.01
2022-12-11T01:54:25.985Z,0.06
2022-12-11T01:57:01.342Z,0.08
2022-12-11T01:59:34.036Z,0.10
2022-12-11T02:02:22.760Z,0.08
2022-12-11T02:04:49.783Z,0.10
2022-12-11T02:07:16.831Z,0.10
2022-12-11T02:09:47.278Z,0.06
2022-12-11T02:12:25.269Z,0.09
2022-12-11T02:15:13.522Z,0.10
2022-12-11T02:18:25.491Z,0.16
2022-12-11T02:21:24.495Z,0.20
2022-12-11T02:24:12.127Z,0.22
2022-12-11T02:27:00.384Z,0.22
2022-12-11T02:30:06.136Z,0.22
2022-12-11T02:32:58.274Z,0.25
2022-12-11T02:35:40.027Z,0.28
2022-12-11T02:38:17.802Z,0.26
2022-12-11T02:40:49.544Z,0.29
2022-12-11T02:43:19.609Z,0.30
2022-12-11T02:45:49.047Z,0.27
2022-12-11T02:48:19.821Z,0.27
2022-12-11T02:50:51.268Z,0.30
2022-12-11T02:53:24.182Z,0.29
2022-12-11T02:56:01.220Z,0.27
2022-12-11T02:58:33.441Z,0.28
2022-12-11T03:01:00.901Z,0.28
2022-12-11T03:03:30.823Z,0.33
2022-12-11T03:05:57.755Z,0.35
2022-12-11T03:08:24.692Z,0.35
2022-12-11T03:10:51.448Z,0.38
2022-12-11T03:13:21.580Z,0.45
2022-12-11T03:16:09.779Z,0.46
2022-12-11T03:19:07.282Z,0.46
2022-12-11T03:21:48.807Z,0.48
2022-12-11T03:24:19.980Z,0.45
2022-12-11T03:26:58.454Z,0.42
2022-12-11T03:29:39.576Z,0.41
2022-12-11T03:32:19.961Z,0.39
2022-12-11T03:35:03.564Z,0.41
2022-12-11T03:37:37.261Z,0.47
2022-12-11T03:40:12.094Z,0.48
2022-12-11T03:42:40.941Z,0.50
2022-12-11T03:45:10.036Z,0.54
2022-12-11T03:47:41.088Z,0.54
2022-12-11T03:50:12.824Z,0.51
2022-12-11T03:52:46.166Z,0.53
2022-12-11T03:55:19.320Z,0.56
2022-12-11T03:57:46.035Z,0.61
2022-12-11T04:00:18.510Z,0.62
2022-12-11T04:03:11.205Z,0.61
2022-12-11T04:05:46.940Z,0.61
2022-12-11T04:08:15.043Z,0.62
2022-12-11T04:10:43.268Z,0.62
2022-12-11T04:13:10.929Z,0.62
2022-12-11T04:15:38.706Z,0.63
2022-12-11T04:18:25.434Z,0.66
2022-12-11T04:21:15.156Z,0.67
2022-12-11T04:24:00.573Z,0.71
2022-12-11T04:26:27.469Z,0.71
2022-12-11T04:28:54.594Z,0.68
2022-12-11T04:31:22.619Z,0.63
2022-12-11T04:33:49.656Z,0.59
2022-12-11T04:36:16.902Z,0.55
2022-12-11T04:38:43.723Z,0.51
2022-12-11T04:41:14.519Z,0.48
2022-12-11T04:43:41.759Z,0.47
2022-12-11T04:46:12.594Z,0.46
2022-12-11T04:48:40.236Z,0.43
2022-12-11T04:51:08.576Z,0.41
2022-12-11T04:53:36.797Z,0.41
2022-12-11T04:56:13.105Z,0.38
2022-12-11T04:58:41.781Z,0.41
2022-12-11T05:01:16.884Z,0.43
2022-12-11T05:03:44.526Z,0.43
2022-12-11T05:06:12.222Z,0.45
2022-12-11T05:08:42.099Z,0.43
2022-12-11T05:11:13.275Z,0.46
2022-12-11T05:13:40.619Z,0.47
2022-12-11T05:16:10.523Z,0.52
2022-12-11T05:18:37.888Z,0.52
2022-12-11T05:21:12.307Z,0.53
2022-12-11T05:23:39.700Z,0.53
2022-12-11T05:26:13.011Z,0.53
2022-12-11T05:28:40.929Z,0.52
2022-12-11T05:31:17.308Z,0.56
2022-12-11T05:33:46.332Z,0.56
2022-12-11T05:36:19.447Z,0.60
2022-12-11T05:38:46.924Z,0.66
2022-12-11T05:41:18.135Z,0.63
2022-12-11T05:43:45.658Z,0.63
2022-12-11T05:46:15.229Z,0.61
2022-12-11T05:48:45.100Z,0.59
2022-12-11T05:51:13.756Z,0.60
2022-12-11T05:53:43.152Z,0.61
2022-12-11T05:56:26.762Z,0.61
2022-12-11T05:58:54.973Z,0.60
2022-12-11T06:01:29.164Z,0.60
2022-12-11T06:03:58.335Z,0.63
2022-12-11T06:06:26.109Z,0.63
2022-12-11T06:08:55.390Z,0.62
2022-12-11T06:11:24.487Z,0.61
2022-12-11T06:13:52.619Z,0.60
2022-12-11T06:16:20.409Z,0.60
2022-12-11T06:18:47.841Z,0.56
2022-12-11T06:21:28.186Z,0.54
2022-12-11T06:23:57.907Z,0.52
2022-12-11T06:26:25.495Z,0.49
2022-12-11T06:28:52.790Z,0.46
2022-12-11T06:31:20.366Z,0.46
2022-12-11T06:33:47.592Z,0.47
2022-12-11T06:36:19.104Z,0.47
2022-12-11T06:38:47.739Z,0.49
2022-12-11T06:41:14.798Z,0.49
2022-12-11T06:43:42.977Z,0.48
2022-12-11T06:46:16.929Z,0.46
2022-12-11T06:48:45.615Z,0.42
2022-12-11T06:51:22.555Z,0.41
2022-12-11T06:53:55.559Z,0.42
2022-12-11T06:56:24.223Z,0.42
2022-12-11T06:58:51.948Z,0.43
2022-12-11T07:01:22.445Z,0.43
2022-12-11T07:03:49.774Z,0.44
2022-12-11T07:06:16.819Z,0.48
2022-12-11T07:08:44.081Z,0.47
2022-12-11T07:11:14.604Z,0.48
2022-12-11T07:13:42.284Z,0.52
2022-12-11T07:16:11.613Z,0.54
2022-12-11T07:18:46.620Z,0.56
2022-12-11T07:21:14.831Z,0.60
2022-12-11T07:23:42.606Z,0.66
2022-12-11T07:26:16.575Z,0.68
2022-12-11T07:28:44.326Z,0.69
2022-12-11T07:31:23.664Z,0.72
2022-12-11T07:34:04.194Z,0.73
2022-12-11T07:36:31.650Z,0.76
2022-12-11T07:39:00.622Z,0.71
2022-12-11T07:41:31.675Z,0.72
2022-12-11T07:44:01.247Z,0.74
2022-12-11T07:46:30.671Z,0.79
2022-12-11T07:48:57.539Z,0.82
2022-12-11T07:51:30.961Z,0.81
2022-12-11T07:54:01.945Z,0.81
2022-12-11T07:56:30.654Z,0.81
2022-12-11T07:59:06.088Z,0.76
2022-12-11T08:01:36.504Z,0.72
2022-12-11T08:04:07.275Z,0.77
2022-12-11T08:06:38.433Z,0.82
2022-12-11T08:09:13.569Z,0.85
2022-12-11T08:11:44.025Z,0.85
2022-12-11T08:14:10.891Z,0.86
2022-12-11T08:16:38.891Z,0.84
2022-12-11T08:19:05.725Z,0.88
2022-12-11T08:21:32.463Z,0.91
2022-12-11T08:23:59.254Z,0.85
2022-12-11T08:26:29.918Z,0.77
2022-12-11T08:28:57.972Z,0.75
2022-12-11T08:31:25.321Z,0.80
2022-12-11T08:33:52.776Z,0.87
2022-12-11T08:36:23.002Z,0.92
2022-12-11T08:38:50.998Z,0.92
2022-12-11T08:41:30.296Z,0.94
2022-12-11T08:44:00.234Z,0.96
2022-12-11T08:46:31.176Z,0.94
2022-12-11T08:48:59.110Z,0.93
2022-12-11T08:51:28.856Z,0.88
2022-12-11T08:53:57.879Z,0.85
2022-12-11T08:56:26.745Z,0.80
2022-12-11T08:58:54.320Z,0.84
2022-12-11T09:01:27.004Z,0.80
2022-12-11T09:03:56.596Z,0.86
2022-12-11T09:06:27.227Z,0.86
2022-12-11T09:08:56.015Z,0.87
2022-12-11T09:11:27.125Z,0.84
2022-12-11T09:13:55.062Z,0.86
2022-12-11T09:16:24.855Z,0.85
2022-12-11T09:18:56.050Z,0.81
2022-12-11T09:21:27.510Z,0.81
2022-12-11T09:24:00.446Z,0.84
2022-12-11T09:26:29.325Z,0.82
2022-12-11T09:28:56.527Z,0.85
2022-12-11T09:31:30.435Z,0.84
2022-12-11T09:34:11.415Z,0.94
2022-12-11T09:36:42.646Z,0.91
2022-12-11T09:39:11.892Z,0.88
2022-12-11T09:42:14.882Z,0.86
2022-12-11T09:45:04.207Z,0.74
2022-12-11T09:47:47.326Z,0.65
2022-12-11T09:50:24.393Z,0.66
2022-12-11T09:53:16.801Z,0.76
2022-12-11T09:55:55.267Z,0.76
2022-12-11T09:58:32.248Z,0.79
2022-12-11T10:01:34.566Z,0.82
2022-12-11T10:04:38.231Z,0.81
2022-12-11T10:07:07.563Z,0.81
2022-12-11T10:09:51.557Z,0.81
2022-12-11T10:12:40.005Z,0.74
2022-12-11T10:15:31.180Z,0.74
2022-12-11T10:18:04.878Z,0.64
2022-12-11T10:20:40.276Z,0.67
2022-12-11T10:23:16.739Z,0.72
2022-12-11T10:25:53.885Z,0.79
2022-12-11T10:28:21.980Z,0.85
2022-12-11T10:31:18.807Z,0.80
2022-12-11T10:33:59.267Z,0.81
2022-12-11T10:36:37.281Z,0.82
2022-12-11T10:39:15.625Z,0.73
2022-12-11T10:41:45.952Z,0.78
2022-12-11T10:44:31.466Z,0.83
2022-12-11T10:47:06.495Z,0.80
2022-12-11T10:49:36.198Z,0.79
2022-12-11T10:52:13.055Z,0.87
2022-12-11T10:54:44.315Z,0.95
2022-12-11T10:57:15.674Z,0.91
2022-12-11T10:59:49.929Z,0.85
2022-12-11T11:02:32.295Z,0.83
2022-12-11T11:05:10.691Z,0.81
2022-12-11T11:07:37.680Z,0.89
2022-12-11T11:10:10.631Z,0.97
2022-12-11T11:12:49.680Z,1.00
2022-12-11T11:15:27.713Z,1.01
2022-12-11T11:17:59.032Z,1.03
2022-12-11T11:20:31.510Z,0.99
2022-12-11T11:23:03.521Z,1.01
2022-12-11T11:25:33.524Z,0.99
2022-12-11T11:28:04.852Z,1.05
2022-12-11T11:30:39.879Z,1.07
2022-12-11T11:33:15.674Z,1.02
2022-12-11T11:35:54.853Z,0.99
2022-12-11T11:38:28.062Z,0.94
2022-12-11T11:41:29.321Z,0.91
2022-12-11T11:44:02.375Z,0.94
2022-12-11T11:46:56.712Z,0.96
2022-12-11T11:49:45.288Z,0.91
2022-12-11T11:52:33.401Z,0.94
2022-12-11T11:55:21.699Z,0.94
2022-12-11T11:58:07.632Z,0.97
2022-12-11T12:00:34.365Z,0.99
2022-12-11T12:03:15.449Z,0.99
2022-12-11T12:06:01.181Z,0.99
2022-12-11T12:08:56.671Z,0.99
2022-12-11T12:11:50.824Z,1.05
2022-12-11T12:15:02.096Z,1.12
2022-12-11T12:17:55.078Z,1.12
2022-12-11T12:20:53.329Z,1.21
2022-12-11T12:23:34.885Z,1.18
2022-12-11T12:26:17.124Z,1.24
2022-12-11T12:29:13.236Z,1.24
2022-12-11T12:31:55.398Z,1.28
2022-12-11T12:34:51.806Z,1.32
2022-12-11T12:38:03.116Z,1.38
2022-12-11T12:40:52.145Z,1.32
2022-12-11T12:43:31.345Z,1.30
2022-12-11T12:46:13.321Z,1.30
2022-12-11T12:48:40.320Z,1.30
2022-12-11T12:51:07.635Z,1.32
2022-12-11T12:53:37.486Z,1.32
2022-12-11T12:56:06.680Z,1.29
2022-12-11T12:58:43.215Z,1.27
2022-12-11T13:01:22.968Z,1.35
2022-12-11T13:03:55.333Z,1.41
2022-12-11T13:06:45.296Z,1.39
2022-12-11T13:09:19.486Z,1.44
2022-12-11T13:11:54.496Z,1.41
2022-12-11T13:14:21.171Z,1.38
2022-12-11T13:16:53.046Z,1.32
2022-12-11T13:19:22.782Z,1.35
2022-12-11T13:22:20.363Z,1.40
2022-12-11T13:24:52.820Z,1.41
2022-12-11T13:27:27.389Z,1.40
2022-12-11T13:30:22.409Z,1.43
2022-12-11T13:33:17.597Z,1.39
2022-12-11T13:35:45.368Z,1.34
2022-12-11T13:38:21.105Z,1.36
2022-12-11T13:40:55.716Z,1.35
2022-12-11T13:43:31.039Z,1.31
2022-12-11T13:46:01.789Z,1.32
2022-12-11T13:49:07.681Z,1.39
2022-12-11T13:51:37.880Z,1.40
2022-12-11T13:54:19.029Z,1.41
2022-12-11T13:57:00.759Z,1.43
2022-12-11T13:59:36.605Z,1.45
2022-12-11T14:02:18.276Z,1.46
2022-12-11T14:04:49.712Z,1.47
2022-12-11T14:07:27.910Z,1.52
2022-12-11T14:10:03.000Z,1.49
2022-12-11T14:12:31.871Z,1.48
2022-12-11T14:15:02.816Z,1.47
2022-12-11T14:17:34.241Z,1.46
2022-12-11T14:20:07.776Z,1.44
2022-12-11T14:22:34.811Z,1.40
2022-12-11T14:25:19.549Z,1.42
2022-12-11T14:27:55.986Z,1.36
2022-12-11T14:30:31.599Z,1.37
2022-12-11T14:33:04.287Z,1.37
2022-12-11T14:35:41.652Z,1.36
2022-12-11T14:38:19.858Z,1.29
2022-12-11T14:40:53.255Z,1.24
2022-12-11T14:43:33.506Z,1.25
2022-12-11T14:46:11.395Z,1.37
2022-12-11T14:49:01.005Z,1.37
2022-12-11T14:51:38.694Z,1.34
2022-12-11T14:54:11.188Z,1.33
2022-12-11T14:56:37.858Z,1.31
2022-12-11T14:59:19.311Z,1.28
2022-12-11T15:01:46.116Z,1.30
2022-12-11T15:04:15.811Z,1.28
2022-12-11T15:06:47.859Z,1.31
2022-12-11T15:09:33.624Z,1.29
2022-12-11T15:12:15.869Z,1.26
2022-12-11T15:14:55.914Z,1.24
2022-12-11T15:17:25.806Z,1.19
2022-12-11T15:20:01.996Z,1.15
2022-12-11T15:22:32.813Z,1.13
2022-12-11T15:25:00.430Z,1.11
2022-12-11T15:27:38.597Z,1.12
2022-12-11T15:30:26.817Z,1.10
2022-12-11T15:33:11.988Z,1.07
2022-12-11T15:35:52.065Z,1.08
2022-12-11T15:38:42.003Z,1.06
2022-12-11T15:41:18.129Z,1.08
2022-12-11T15:43:45.402Z,1.02
2022-12-11T15:46:12.166Z,1.03
2022-12-11T15:48:39.111Z,0.98
2022-12-11T15:51:06.275Z,0.96
2022-12-11T15:53:33.075Z,0.99
2022-12-11T15:56:00.289Z,1.03
2022-12-11T15:58:27.691Z,0.96
2022-12-11T16:00:55.131Z,0.91
2022-12-11T16:03:23.956Z,0.93
2022-12-11T16:05:53.101Z,0.92
2022-12-11T16:08:23.673Z,0.88
2022-12-11T16:10:54.139Z,0.85
2022-12-11T16:13:22.335Z,0.92
2022-12-11T16:15:51.221Z,0.90
2022-12-11T16:18:23.210Z,0.80
2022-12-11T16:20:51.968Z,0.77
2022-12-11T16:23:19.491Z,0.74
2022-12-11T16:25:47.293Z,0.64
2022-12-11T16:28:18.066Z,0.63
2022-12-11T16:30:45.529Z,0.60
2022-12-11T16:33:13.717Z,0.55
2022-12-11T16:35:42.706Z,0.48
2022-12-11T16:38:11.075Z,0.45
2022-12-11T16:40:38.407Z,0.45
2022-12-11T16:43:05.829Z,0.46
2022-12-11T16:45:33.462Z,0.43
2022-12-11T16:48:04.581Z,0.44
2022-12-11T16:50:32.293Z,0.51
2022-12-11T16:52:59.351Z,0.47
2022-12-11T16:55:26.471Z,0.38
2022-12-11T16:57:53.175Z,0.37
2022-12-11T17:00:20.530Z,0.35
2022-12-11T17:02:47.310Z,0.32
2022-12-11T17:05:14.446Z,0.30
2022-12-11T17:07:41.424Z,0.30
2022-12-11T17:10:09.057Z,0.31
2022-12-11T17:12:36.001Z,0.29
2022-12-11T17:15:03.245Z,0.35
2022-12-11T17:17:30.421Z,0.35
2022-12-11T17:19:57.413Z,0.43
2022-12-11T17:22:25.282Z,0.37
2022-12-11T17:24:52.064Z,0.42
2022-12-11T17:27:18.827Z,0.46
2022-12-11T17:29:45.714Z,0.44
2022-12-11T17:32:12.435Z,0.40
2022-12-11T17:34:39.172Z,0.44
2022-12-11T17:37:06.543Z,0.50
2022-12-11T17:39:33.451Z,0.52
2022-12-11T17:42:00.818Z,0.55
2022-12-11T17:44:30.545Z,0.52
2022-12-11T17:46:59.250Z,0.46
2022-12-11T17:49:26.521Z,0.47
2022-12-11T17:51:55.217Z,0.49
2022-12-11T17:54:24.201Z,0.50
2022-12-11T17:56:51.575Z,0.50
2022-12-11T17:59:18.478Z,0.54
2022-12-11T18:01:45.504Z,0.51
2022-12-11T18:04:13.096Z,0.47
2022-12-11T18:06:40.270Z,0.51
2022-12-11T18:09:07.312Z,0.50
2022-12-11T18:11:34.923Z,0.52
2022-12-11T18:14:01.980Z,0.54
2022-12-11T18:16:33.752Z,0.55
2022-12-11T18:19:00.812Z,0.55
2022-12-11T18:21:33.491Z,0.49
2022-12-11T18:24:01.639Z,0.51
2022-12-11T18:26:29.143Z,0.47
2022-12-11T18:28:56.026Z,0.42
2022-12-11T18:31:24.047Z,0.40
2022-12-11T18:33:52.094Z,0.34
2022-12-11T18:36:20.547Z,0.35
2022-12-11T18:38:48.384Z,0.32
2022-12-11T18:41:17.329Z,0.38
2022-12-11T18:43:44.357Z,0.43
2022-12-11T18:46:15.842Z,0.44
2022-12-11T18:48:44.782Z,0.47
2022-12-11T18:51:19.884Z,0.54
2022-12-11T18:53:46.712Z,0.48
2022-12-11T18:56:17.556Z,0.43
2022-12-11T18:58:45.073Z,0.35
2022-12-11T19:01:26.013Z,0.32
2022-12-11T19:04:05.360Z,0.26
2022-12-11T19:06:54.942Z,0.24
2022-12-11T19:09:21.683Z,0.20
2022-12-11T19:11:48.519Z,0.20
2022-12-11T19:14:15.524Z,0.15
2022-12-11T19:16:45.506Z,0.10
2022-12-11T19:19:19.530Z,0.08
2022-12-11T19:21:47.465Z,0.09
2022-12-11T19:24:20.822Z,0.16
2022-12-11T19:26:49.112Z,0.14
2022-12-11T19:29:26.800Z,0.09
2022-12-11T19:31:55.603Z,0.06
2022-12-11T19:34:24.027Z,0.06
2022-12-11T19:36:51.507Z,0.05
2022-12-11T19:39:19.686Z,0.05
2022-12-11T19:41:47.105Z,0.08
2022-12-11T19:44:14.061Z,0.08
2022-12-11T19:46:42.488Z,0.02
2022-12-11T19:49:11.685Z,-0.02
2022-12-11T19:51:41.517Z,0.01
2022-12-11T19:54:13.364Z,0.04
2022-12-11T19:56:40.515Z,0.03
2022-12-11T19:59:10.781Z,-0.01
2022-12-11T20:01:38.770Z,-0.04
2022-12-11T20:04:12.229Z,-0.01
2022-12-11T20:06:43.697Z,0.05
2022-12-11T20:09:12.237Z,0.03
2022-12-11T20:11:42.350Z,0.04
2022-12-11T20:14:09.484Z,0.07
2022-12-11T20:19:23.294Z,-0.02
2022-12-11T20:21:50.021Z,-0.05
2022-12-11T20:24:16.752Z,-0.04
2022-12-11T20:26:43.543Z,-0.05
2022-12-11T20:29:12.781Z,-0.08
2022-12-11T20:31:40.129Z,-0.13
2022-12-11T20:34:07.949Z,-0.12
2022-12-11T20:36:35.240Z,-0.13
2022-12-11T20:39:02.204Z,-0.11
2022-12-11T20:41:29.368Z,-0.14
2022-12-11T20:43:56.286Z,-0.14
2022-12-11T20:46:26.432Z,-0.12
2022-12-11T20:48:58.625Z,-0.11
2022-12-11T20:51:26.887Z,-0.11
2022-12-11T20:53:59.049Z,-0.12
2022-12-11T20:56:29.844Z,-0.12
2022-12-11T20:58:59.507Z,-0.07
2022-12-11T21:01:30.976Z,-0.02
2022-12-11T21:03:59.678Z,-0.01
2022-12-11T21:06:33.450Z,-0.01
2022-12-11T21:09:04.316Z,0.02
2022-12-11T21:11:31.305Z,0.03
2022-12-11T21:13:58.131Z,0.03
2022-12-11T21:16:25.409Z,0.07
2022-12-11T21:18:54.308Z,0.03
2022-12-11T21:21:21.120Z,0.06
2022-12-11T21:23:47.920Z,0.11
2022-12-11T21:26:15.380Z,0.19
2022-12-11T21:28:42.629Z,0.25
2022-12-11T21:31:15.094Z,0.29
2022-12-11T21:33:42.037Z,0.37
2022-12-11T21:36:12.170Z,0.40
2022-12-11T21:38:41.689Z,0.42
2022-12-11T21:41:21.551Z,0.42
2022-12-11T21:46:38.680Z,0.38
2022-12-11T21:49:06.080Z,0.33
2022-12-11T21:51:39.496Z,0.32
2022-12-11T21:54:16.685Z,0.41
2022-12-11T21:56:43.927Z,0.42
2022-12-11T21:59:10.723Z,0.39
2022-12-11T22:01:42.097Z,0.33
2022-12-11T22:04:11.191Z,0.26
2022-12-11T22:06:39.883Z,0.23
2022-12-11T22:09:06.613Z,0.16
2022-12-11T22:11:35.295Z,0.13
2022-12-11T22:14:03.024Z,0.11
2022-12-11T22:16:30.120Z,0.07
2022-12-11T22:18:56.947Z,0.06
2022-12-11T22:21:23.801Z,0.07
2022-12-11T22:23:50.743Z,0.08
2022-12-11T22:26:25.085Z,0.07
2022-12-11T22:28:52.632Z,0.04
2022-12-11T22:31:22.297Z,0.03
2022-12-11T22:33:53.540Z,0.02
2022-12-11T22:36:22.034Z,0.04
2022-12-11T22:38:48.851Z,0.06
2022-12-11T22:41:29.731Z,-0.01
2022-12-11T22:43:58.235Z,-0.12
2022-12-11T22:46:30.310Z,-0.18
2022-12-11T22:48:58.336Z,-0.25
2022-12-11T22:51:25.172Z,-0.29
2022-12-11T22:53:51.911Z,-0.32
2022-12-11T22:56:18.672Z,-0.34
2022-12-11T22:58:45.955Z,-0.36
2022-12-11T23:01:20.558Z,-0.36
2022-12-11T23:03:48.699Z,-0.38
2022-12-11T23:06:19.031Z,-0.36
2022-12-11T23:08:46.671Z,-0.32
2022-12-11T23:11:24.046Z,-0.29
2022-12-11T23:13:51.354Z,-0.29
2022-12-11T23:16:18.235Z,-0.27
2022-12-11T23:18:45.352Z,-0.24
2022-12-11T23:21:13.023Z,-0.23
2022-12-11T23:23:40.141Z,-0.24
2022-12-11T23:26:10.583Z,-0.26
2022-12-11T23:28:38.648Z,-0.28
2022-12-11T23:31:06.020Z,-0.33
2022-12-11T23:33:32.845Z,-0.35
2022-12-11T23:36:00.208Z,-0.35
2022-12-11T23:38:27.356Z,-0.37
2022-12-11T23:40:54.734Z,-0.41
2022-12-11T23:43:21.655Z,-0.37
2022-12-11T23:45:48.426Z,-0.37
2022-12-11T23:48:15.467Z,-0.33
2022-12-11T23:50:43.864Z,-0.31
2022-12-11T23:53:12.041Z,-0.28
2022-12-11T23:55:42.444Z,-0.26
2022-12-11T23:58:10.859Z,-0.22
